createdAt,value
2023-05-21T00:00:51.775Z,101210.86
2023-05-21T00:03:42.305Z,101204.14
2023-05-21T00:06:10.233Z,101202.02
2023-05-21T00:08:37.928Z,101207.37
2023-05-21T00:11:06.741Z,101203.41
2023-05-21T00:13:35.091Z,101205.73
2023-05-21T00:16:04.106Z,101206.25
2023-05-21T00:18:32.580Z,101203.16
2023-05-21T00:21:01.737Z,101205.71
2023-05-21T00:23:32.758Z,101204.61
2023-05-21T00:26:00.932Z,101207.84
2023-05-21T00:28:28.915Z,101203.11
2023-05-21T00:30:56.723Z,101207.76
2023-05-21T00:33:26.844Z,101207.24
2023-05-21T00:35:55.412Z,101211.15
2023-05-21T00:38:23.692Z,101219.88
2023-05-21T00:40:51.494Z,101218.63
2023-05-21T00:43:19.458Z,101215.23
2023-05-21T00:45:48.786Z,101214.70
2023-05-21T00:48:16.482Z,101213.86
2023-05-21T00:50:45.006Z,101214.43
2023-05-21T00:53:15.391Z,101209.71
2023-05-21T00:55:43.103Z,101212.16
2023-05-21T00:58:11.098Z,101216.83
2023-05-21T01:00:40.814Z,101218.73
2023-05-21T01:03:09.610Z,101222.05
2023-05-21T01:05:37.970Z,101221.23
2023-05-21T01:08:07.680Z,101223.58
2023-05-21T01:10:35.555Z,101220.31
2023-05-21T01:13:03.479Z,101218.84
2023-05-21T01:15:31.338Z,101216.88
2023-05-21T01:17:59.854Z,101216.50
2023-05-21T01:20:28.667Z,101211.83
2023-05-21T01:22:57.316Z,101212.52
2023-05-21T01:25:25.465Z,101211.02
2023-05-21T01:27:53.157Z,101205.45
2023-05-21T01:30:23.373Z,101207.34
2023-05-21T01:33:03.059Z,101208.44
2023-05-21T01:35:39.070Z,101205.95
2023-05-21T01:38:19.292Z,101208.02
2023-05-21T01:41:06.959Z,101205.40
2023-05-21T01:43:40.412Z,101209.85
2023-05-21T01:46:12.545Z,101206.55
2023-05-21T01:48:42.533Z,101208.28
2023-05-21T01:51:11.464Z,101207.33
2023-05-21T01:53:40.822Z,101208.31
2023-05-21T01:56:08.663Z,101206.80
2023-05-21T01:58:36.411Z,101212.52
2023-05-21T02:01:05.656Z,101212.72
2023-05-21T02:03:33.972Z,101213.39
2023-05-21T02:06:02.169Z,101211.67
2023-05-21T02:08:31.355Z,101211.17
2023-05-21T02:10:59.762Z,101206.14
2023-05-21T02:13:29.122Z,101205.92
2023-05-21T02:15:56.902Z,101209.50
2023-05-21T02:18:26.630Z,101206.21
2023-05-21T02:20:54.801Z,101210.28
2023-05-21T02:23:22.582Z,101209.58
2023-05-21T02:25:51.686Z,101209.10
2023-05-21T02:28:19.565Z,101211.02
2023-05-21T02:30:47.307Z,101206.39
2023-05-21T02:33:16.304Z,101207.88
2023-05-21T02:35:44.632Z,101206.18
2023-05-21T02:38:13.643Z,101204.63
2023-05-21T02:40:41.622Z,101202.73
2023-05-21T02:43:09.600Z,101202.95
2023-05-21T02:45:37.529Z,101201.89
2023-05-21T02:48:06.501Z,101196.76
2023-05-21T02:50:36.843Z,101196.90
2023-05-21T02:53:04.689Z,101194.09
2023-05-21T02:55:32.913Z,101194.25
2023-05-21T02:58:01.242Z,101195.58
2023-05-21T03:00:28.990Z,101192.70
2023-05-21T03:02:57.162Z,101191.19
2023-05-21T03:05:25.817Z,101187.09
2023-05-21T03:07:53.521Z,101189.84
2023-05-21T03:10:21.970Z,101192.58
2023-05-21T03:12:49.769Z,101187.32
2023-05-21T03:15:18.168Z,101184.28
2023-05-21T03:17:46.084Z,101182.37
2023-05-21T03:20:16.399Z,101184.14
2023-05-21T03:22:45.143Z,101181.73
2023-05-21T03:25:13.356Z,101181.95
2023-05-21T03:27:41.226Z,101182.49
2023-05-21T03:30:19.072Z,101177.01
2023-05-21T03:33:00.937Z,101177.29
2023-05-21T03:35:28.904Z,101177.27
2023-05-21T03:37:56.742Z,101176.05
2023-05-21T03:40:25.223Z,101172.45
2023-05-21T03:42:53.263Z,101175.02
2023-05-21T03:45:21.891Z,101170.61
2023-05-21T03:48:09.819Z,101171.77
2023-05-21T03:50:37.654Z,101171.09
2023-05-21T03:53:05.462Z,101169.56
2023-05-21T03:55:33.388Z,101166.52
2023-05-21T03:58:02.575Z,101166.81
2023-05-21T04:00:34.643Z,101168.08
2023-05-21T04:03:02.477Z,101170.21
2023-05-21T04:05:30.423Z,101171.07
2023-05-21T04:07:58.831Z,101167.86
2023-05-21T04:10:27.130Z,101171.15
2023-05-21T04:12:55.169Z,101173.62
2023-05-21T04:15:24.401Z,101169.27
2023-05-21T04:17:52.523Z,101167.81
2023-05-21T04:20:21.018Z,101163.41
2023-05-21T04:22:49.209Z,101167.83
2023-05-21T04:25:17.469Z,101165.56
2023-05-21T04:27:47.830Z,101163.58
2023-05-21T04:30:16.052Z,101166.77
2023-05-21T04:32:46.216Z,101169.64
2023-05-21T04:35:15.327Z,101167.46
2023-05-21T04:37:45.968Z,101162.27
2023-05-21T04:40:24.393Z,101163.09
2023-05-21T04:42:52.113Z,101158.92
2023-05-21T04:45:21.303Z,101162.86
2023-05-21T04:47:49.720Z,101166.17
2023-05-21T04:50:17.589Z,101165.55
2023-05-21T04:52:45.632Z,101165.66
2023-05-21T04:55:13.637Z,101159.05
2023-05-21T04:57:41.293Z,101158.41
2023-05-21T05:00:10.407Z,101155.54
2023-05-21T05:02:42.736Z,101152.87
2023-05-21T05:05:11.162Z,101151.42
2023-05-21T05:07:38.950Z,101151.03
2023-05-21T05:10:08.787Z,101151.02
2023-05-21T05:12:36.996Z,101153.27
2023-05-21T05:15:06.215Z,101156.55
2023-05-21T05:17:35.435Z,101157.70
2023-05-21T05:20:05.125Z,101159.23
2023-05-21T05:22:33.211Z,101159.73
2023-05-21T05:25:00.967Z,101152.77
2023-05-21T05:27:28.762Z,101150.89
2023-05-21T05:29:56.524Z,101151.70
2023-05-21T05:32:24.699Z,101149.53
2023-05-21T05:34:52.630Z,101154.91
2023-05-21T05:37:20.487Z,101155.70
2023-05-21T05:39:48.262Z,101152.55
2023-05-21T05:42:16.020Z,101149.15
2023-05-21T05:44:44.169Z,101145.11
2023-05-21T05:47:11.901Z,101143.56
2023-05-21T05:49:40.766Z,101146.27
2023-05-21T05:52:08.560Z,101144.89
2023-05-21T05:54:36.257Z,101143.10
2023-05-21T05:57:04.446Z,101147.58
2023-05-21T05:59:33.830Z,101141.48
2023-05-21T06:02:02.984Z,101142.46
2023-05-21T06:04:31.153Z,101141.45
2023-05-21T06:06:59.907Z,101138.25
2023-05-21T06:09:27.586Z,101139.91
2023-05-21T06:11:56.381Z,101136.52
2023-05-21T06:14:24.283Z,101141.55
2023-05-21T06:16:52.326Z,101141.70
2023-05-21T06:19:20.195Z,101133.41
2023-05-21T06:21:48.518Z,101135.17
2023-05-21T06:24:16.339Z,101135.02
2023-05-21T06:26:44.638Z,101134.59
2023-05-21T06:29:14.270Z,101135.90
2023-05-21T06:31:44.099Z,101135.12
2023-05-21T06:34:12.178Z,101133.98
2023-05-21T06:36:40.006Z,101135.57
2023-05-21T06:39:08.100Z,101136.80
2023-05-21T06:41:37.454Z,101137.92
2023-05-21T06:44:23.305Z,101137.48
2023-05-21T06:47:14.181Z,101135.50
2023-05-21T06:49:41.903Z,101131.48
2023-05-21T06:52:09.660Z,101128.56
2023-05-21T06:54:37.884Z,101121.59
2023-05-21T06:57:06.094Z,101117.17
2023-05-21T06:59:34.214Z,101114.00
2023-05-21T07:02:04.354Z,101109.32
2023-05-21T07:04:32.478Z,101110.67
2023-05-21T07:07:01.060Z,101110.08
2023-05-21T07:09:28.770Z,101111.34
2023-05-21T07:11:57.899Z,101110.37
2023-05-21T07:14:26.880Z,101111.56
2023-05-21T07:16:54.670Z,101109.55
2023-05-21T07:19:22.550Z,101108.70
2023-05-21T07:21:50.798Z,101107.02
2023-05-21T07:24:18.465Z,101109.40
2023-05-21T07:26:46.251Z,101106.73
2023-05-21T07:29:14.257Z,101105.91
2023-05-21T07:31:42.251Z,101101.17
2023-05-21T07:34:11.559Z,101094.86
2023-05-21T07:36:40.509Z,101095.73
2023-05-21T07:39:11.290Z,101097.94
2023-05-21T07:41:39.256Z,101101.61
2023-05-21T07:44:08.452Z,101097.95
2023-05-21T07:46:39.145Z,101092.05
2023-05-21T07:49:07.202Z,101092.45
2023-05-21T07:51:34.961Z,101090.59
2023-05-21T07:54:04.077Z,101091.34
2023-05-21T07:56:36.731Z,101091.33
2023-05-21T07:59:05.902Z,101087.39
2023-05-21T08:01:33.755Z,101086.69
2023-05-21T08:04:05.797Z,101088.55
2023-05-21T08:06:37.551Z,101087.89
2023-05-21T08:09:06.811Z,101084.27
2023-05-21T08:11:34.547Z,101080.77
2023-05-21T08:14:02.723Z,101083.63
2023-05-21T08:16:31.077Z,101083.53
2023-05-21T08:18:58.930Z,101085.98
2023-05-21T08:21:26.645Z,101078.58
2023-05-21T08:23:54.360Z,101080.35
2023-05-21T08:26:22.166Z,101081.01
2023-05-21T08:28:49.861Z,101080.20
2023-05-21T08:31:18.820Z,101077.92
2023-05-21T08:33:54.642Z,101077.60
2023-05-21T08:36:27.304Z,101071.23
2023-05-21T08:39:00.097Z,101072.02
2023-05-21T08:41:38.907Z,101066.48
2023-05-21T08:44:12.283Z,101075.01
2023-05-21T08:46:42.771Z,101072.81
2023-05-21T08:49:13.061Z,101072.02
2023-05-21T08:51:43.916Z,101067.88
2023-05-21T08:54:13.960Z,101068.09
2023-05-21T08:56:47.043Z,101071.92
2023-05-21T08:59:18.276Z,101066.30
2023-05-21T09:01:47.130Z,101069.18
2023-05-21T09:04:27.647Z,101068.19
2023-05-21T09:06:58.123Z,101073.15
2023-05-21T09:10:09.915Z,101074.28
2023-05-21T09:12:38.072Z,101066.94
2023-05-21T09:15:07.842Z,101064.09
2023-05-21T09:17:38.168Z,101064.44
2023-05-21T09:20:27.636Z,101062.09
2023-05-21T09:23:03.550Z,101052.55
2023-05-21T09:25:39.140Z,101053.01
2023-05-21T09:28:15.878Z,101049.79
2023-05-21T09:30:48.051Z,101049.34
2023-05-21T09:33:26.994Z,101046.89
2023-05-21T09:35:54.838Z,101054.42
2023-05-21T09:38:23.929Z,101051.35
2023-05-21T09:40:55.182Z,101046.41
2023-05-21T09:43:23.656Z,101037.05
2023-05-21T09:45:57.327Z,101038.52
2023-05-21T09:48:36.459Z,101035.88
2023-05-21T09:51:14.958Z,101039.88
2023-05-21T09:53:54.363Z,101039.38
2023-05-21T09:56:24.529Z,101034.02
2023-05-21T09:58:54.958Z,101035.43
2023-05-21T10:01:24.276Z,101034.64
2023-05-21T10:04:00.193Z,101028.95
2023-05-21T10:06:29.652Z,101033.83
2023-05-21T10:09:01.108Z,101034.76
2023-05-21T10:11:35.139Z,101033.79
2023-05-21T10:14:19.779Z,101032.92
2023-05-21T10:16:48.276Z,101029.85
2023-05-21T10:19:16.435Z,101031.50
2023-05-21T10:21:45.726Z,101022.58
2023-05-21T10:24:13.758Z,101021.87
2023-05-21T10:26:42.481Z,101021.84
2023-05-21T10:29:11.056Z,101024.79
2023-05-21T10:31:39.902Z,101021.95
2023-05-21T10:34:08.294Z,101005.75
2023-05-21T10:36:37.132Z,101011.77
2023-05-21T10:39:07.489Z,101012.19
2023-05-21T10:41:46.348Z,101012.89
2023-05-21T10:44:55.510Z,101003.33
2023-05-21T10:47:29.191Z,100998.80
2023-05-21T10:50:12.280Z,100997.50
2023-05-21T10:53:16.926Z,100997.43
2023-05-21T10:56:25.364Z,100994.64
2023-05-21T10:59:11.884Z,100995.63
2023-05-21T11:01:41.785Z,100994.61
2023-05-21T11:04:10.978Z,100992.04
2023-05-21T11:06:38.750Z,100987.98
2023-05-21T11:09:13.955Z,100982.17
2023-05-21T11:11:42.902Z,100977.51
2023-05-21T11:14:36.470Z,100980.17
2023-05-21T11:17:12.143Z,100978.86
2023-05-21T11:19:51.014Z,100977.67
2023-05-21T11:22:26.849Z,100976.95
2023-05-21T11:24:57.550Z,100969.00
2023-05-21T11:27:34.290Z,100967.84
2023-05-21T11:30:20.622Z,100969.00
2023-05-21T11:33:17.701Z,100956.92
2023-05-21T11:35:47.687Z,100962.14
2023-05-21T11:38:15.759Z,100959.46
2023-05-21T11:40:56.483Z,100966.33
2023-05-21T11:43:24.208Z,100963.39
2023-05-21T11:45:52.969Z,100963.71
2023-05-21T11:48:26.898Z,100964.85
2023-05-21T11:50:55.998Z,100960.08
2023-05-21T11:53:24.884Z,100959.60
2023-05-21T11:55:57.550Z,100964.35
2023-05-21T11:58:25.806Z,100958.84
2023-05-21T12:00:53.731Z,100954.02
2023-05-21T12:03:26.685Z,100958.48
2023-05-21T12:05:55.645Z,100959.77
2023-05-21T12:08:25.711Z,100957.39
2023-05-21T12:10:58.863Z,100954.16
2023-05-21T12:13:26.942Z,100951.41
2023-05-21T12:15:54.739Z,100953.35
2023-05-21T12:18:22.748Z,100951.05
2023-05-21T12:20:52.175Z,100951.98
2023-05-21T12:23:23.405Z,100954.45
2023-05-21T12:25:53.619Z,100950.27
2023-05-21T12:28:23.063Z,100951.77
2023-05-21T12:30:51.483Z,100945.89
2023-05-21T12:33:25.048Z,100945.70
2023-05-21T12:35:53.796Z,100947.69
2023-05-21T12:38:21.616Z,100942.29
2023-05-21T12:40:49.554Z,100943.27
2023-05-21T12:43:19.063Z,100943.27
2023-05-21T12:45:47.546Z,100940.98
2023-05-21T12:48:16.638Z,100937.86
2023-05-21T12:50:44.376Z,100932.02
2023-05-21T12:53:12.253Z,100930.59
2023-05-21T12:55:40.785Z,100926.06
2023-05-21T12:58:13.754Z,100924.81
2023-05-21T13:00:43.421Z,100926.11
2023-05-21T13:03:11.356Z,100920.46
2023-05-21T13:05:41.651Z,100919.38
2023-05-21T13:08:10.603Z,100917.01
2023-05-21T13:10:38.549Z,100915.48
2023-05-21T13:13:06.511Z,100914.66
2023-05-21T13:15:34.238Z,100915.30
2023-05-21T13:18:04.625Z,100910.08
2023-05-21T13:20:32.593Z,100910.42
2023-05-21T13:23:01.769Z,100909.82
2023-05-21T13:25:32.783Z,100907.86
2023-05-21T13:28:05.960Z,100902.70
2023-05-21T13:30:33.909Z,100901.68
2023-05-21T13:33:04.427Z,100908.03
2023-05-21T13:35:32.448Z,100906.13
2023-05-21T13:38:00.217Z,100903.20
2023-05-21T13:40:30.209Z,100900.80
2023-05-21T13:42:58.068Z,100907.20
2023-05-21T13:45:29.273Z,100904.49
2023-05-21T13:47:57.349Z,100903.41
2023-05-21T13:50:25.397Z,100898.19
2023-05-21T13:52:53.146Z,100895.59
2023-05-21T13:55:21.216Z,100892.22
2023-05-21T13:57:49.256Z,100900.33
2023-05-21T14:00:17.077Z,100900.40
2023-05-21T14:02:45.212Z,100897.33
2023-05-21T14:05:14.158Z,100900.52
2023-05-21T14:07:42.225Z,100895.70
2023-05-21T14:10:10.463Z,100899.34
2023-05-21T14:12:38.977Z,100895.97
2023-05-21T14:15:07.728Z,100891.25
2023-05-21T14:17:35.594Z,100887.79
2023-05-21T14:20:03.723Z,100880.02
2023-05-21T14:22:33.762Z,100883.84
2023-05-21T14:25:03.189Z,100881.98
2023-05-21T14:27:31.017Z,100884.56
2023-05-21T14:29:59.901Z,100884.48
2023-05-21T14:32:27.707Z,100884.37
2023-05-21T14:34:56.729Z,100878.98
2023-05-21T14:37:25.814Z,100879.94
2023-05-21T14:39:53.555Z,100877.52
2023-05-21T14:42:23.382Z,100873.94
2023-05-21T14:44:52.362Z,100872.69
2023-05-21T14:47:20.529Z,100870.61
2023-05-21T14:49:50.874Z,100873.49
2023-05-21T14:52:20.050Z,100866.35
2023-05-21T14:54:48.589Z,100861.61
2023-05-21T14:57:16.293Z,100858.13
2023-05-21T14:59:44.268Z,100860.68
2023-05-21T15:02:11.964Z,100858.54
2023-05-21T15:04:39.851Z,100856.13
2023-05-21T15:07:07.939Z,100853.55
2023-05-21T15:09:35.774Z,100854.75
2023-05-21T15:12:03.683Z,100846.10
2023-05-21T15:14:31.408Z,100846.59
2023-05-21T15:16:59.123Z,100852.06
2023-05-21T15:19:29.100Z,100850.98
2023-05-21T15:21:57.156Z,100851.56
2023-05-21T15:24:27.565Z,100851.84
2023-05-21T15:26:55.610Z,100847.35
2023-05-21T15:29:23.833Z,100853.13
2023-05-21T15:31:51.704Z,100848.42
2023-05-21T15:34:21.856Z,100848.63
2023-05-21T15:36:56.181Z,100847.33
2023-05-21T15:39:24.414Z,100848.94
2023-05-21T15:41:54.844Z,100845.38
2023-05-21T15:44:25.462Z,100845.27
2023-05-21T15:46:54.818Z,100842.21
2023-05-21T15:49:22.785Z,100844.30
2023-05-21T15:51:51.889Z,100845.33
2023-05-21T15:54:22.774Z,100845.00
2023-05-21T15:56:52.961Z,100841.27
2023-05-21T15:59:22.246Z,100841.44
2023-05-21T16:01:52.615Z,100843.69
2023-05-21T16:04:23.819Z,100839.53
2023-05-21T16:06:51.673Z,100840.38
2023-05-21T16:09:19.404Z,100842.36
2023-05-21T16:11:49.087Z,100842.44
2023-05-21T16:14:16.777Z,100842.38
2023-05-21T16:16:44.816Z,100841.85
2023-05-21T16:19:16.664Z,100841.48
2023-05-21T16:21:44.538Z,100838.42
2023-05-21T16:24:12.275Z,100838.63
2023-05-21T16:26:40.311Z,100839.06
2023-05-21T16:29:08.231Z,100840.03
2023-05-21T16:31:37.828Z,100842.01
2023-05-21T16:34:06.388Z,100841.46
2023-05-21T16:36:37.418Z,100840.63
2023-05-21T16:39:05.421Z,100839.66
2023-05-21T16:41:33.862Z,100839.80
2023-05-21T16:44:04.058Z,100839.26
2023-05-21T16:46:31.814Z,100835.23
2023-05-21T16:48:59.879Z,100838.33
2023-05-21T16:51:27.594Z,100839.76
2023-05-21T16:53:55.327Z,100834.33
2023-05-21T16:56:23.214Z,100837.11
2023-05-21T16:58:50.993Z,100840.02
2023-05-21T17:01:18.762Z,100841.08
2023-05-21T17:03:46.575Z,100842.23
2023-05-21T17:06:15.047Z,100843.23
2023-05-21T17:08:42.772Z,100845.31
2023-05-21T17:11:10.831Z,100843.18
2023-05-21T17:13:38.563Z,100847.08
2023-05-21T17:16:06.503Z,100845.17
2023-05-21T17:18:35.538Z,100848.94
2023-05-21T17:21:03.462Z,100847.38
2023-05-21T17:23:31.291Z,100847.33
2023-05-21T17:25:58.992Z,100846.74
2023-05-21T17:28:26.718Z,100850.96
2023-05-21T17:30:54.456Z,100846.07
2023-05-21T17:33:22.644Z,100849.06
2023-05-21T17:35:50.371Z,100849.38
2023-05-21T17:38:18.037Z,100850.19
2023-05-21T17:40:46.222Z,100848.95
2023-05-21T17:43:13.938Z,100847.98
2023-05-21T17:45:41.715Z,100844.77
2023-05-21T17:48:09.462Z,100843.69
2023-05-21T17:50:37.214Z,100846.19
2023-05-21T17:53:04.957Z,100848.48
2023-05-21T17:55:32.799Z,100849.23
2023-05-21T17:58:01.013Z,100847.39
2023-05-21T18:00:28.780Z,100846.23
2023-05-21T18:02:58.800Z,100846.98
2023-05-21T18:05:26.604Z,100845.41
2023-05-21T18:07:55.740Z,100845.22
2023-05-21T18:10:23.612Z,100849.20
2023-05-21T18:12:51.537Z,100851.20
2023-05-21T18:15:19.295Z,100849.97
2023-05-21T18:17:47.632Z,100849.02
2023-05-21T18:20:15.512Z,100848.56
2023-05-21T18:22:44.353Z,100850.39
2023-05-21T18:25:12.090Z,100849.45
2023-05-21T18:27:39.915Z,100851.22
2023-05-21T18:30:08.487Z,100851.60
2023-05-21T18:32:38.888Z,100855.39
2023-05-21T18:35:10.917Z,100858.11
2023-05-21T18:37:42.156Z,100857.58
2023-05-21T18:40:11.543Z,100857.56
2023-05-21T18:42:40.199Z,100859.45
2023-05-21T18:45:09.187Z,100860.91
2023-05-21T18:47:39.151Z,100863.11
2023-05-21T18:50:15.517Z,100858.38
2023-05-21T18:52:43.225Z,100860.59
2023-05-21T18:55:10.992Z,100860.61
2023-05-21T18:57:39.471Z,100858.70
2023-05-21T19:00:09.661Z,100861.80
2023-05-21T19:02:37.810Z,100861.11
2023-05-21T19:05:07.216Z,100861.00
2023-05-21T19:07:36.175Z,100865.67
2023-05-21T19:10:05.035Z,100868.52
2023-05-21T19:12:36.073Z,100869.73
2023-05-21T19:15:04.165Z,100873.24
2023-05-21T19:17:33.444Z,100871.19
2023-05-21T19:20:01.523Z,100871.05
2023-05-21T19:22:29.424Z,100875.12
2023-05-21T19:24:57.191Z,100873.52
2023-05-21T19:27:26.256Z,100876.13
2023-05-21T19:29:54.010Z,100879.81
2023-05-21T19:32:23.653Z,100880.33
2023-05-21T19:34:52.220Z,100881.00
2023-05-21T19:37:20.573Z,100886.58
2023-05-21T19:39:50.411Z,100887.49
2023-05-21T19:42:21.287Z,100890.16
2023-05-21T19:44:49.521Z,100890.69
2023-05-21T19:47:18.535Z,100888.39
2023-05-21T19:49:46.267Z,100891.83
2023-05-21T19:52:14.032Z,100890.49
2023-05-21T19:54:41.793Z,100886.36
2023-05-21T19:57:12.313Z,100886.83
2023-05-21T19:59:40.914Z,100885.90
2023-05-21T20:02:12.428Z,100882.29
2023-05-21T20:04:40.324Z,100877.89
2023-05-21T20:07:09.010Z,100878.95
2023-05-21T20:09:37.152Z,100878.63
2023-05-21T20:12:06.178Z,100873.49
2023-05-21T20:14:34.435Z,100870.95
2023-05-21T20:17:03.396Z,100868.15
2023-05-21T20:19:32.570Z,100864.55
2023-05-21T20:22:00.649Z,100865.65
2023-05-21T20:24:28.449Z,100864.77
2023-05-21T20:26:56.136Z,100869.77
2023-05-21T20:29:24.001Z,100871.27
2023-05-21T20:31:52.251Z,100872.00
2023-05-21T20:34:20.695Z,100873.05
2023-05-21T20:36:49.280Z,100874.06
2023-05-21T20:39:16.922Z,100876.84
2023-05-21T20:41:46.868Z,100876.98
2023-05-21T20:44:14.617Z,100875.29
2023-05-21T20:46:42.441Z,100876.67
2023-05-21T20:49:10.277Z,100876.00
2023-05-21T20:51:38.098Z,100875.96
2023-05-21T20:54:06.141Z,100872.45
2023-05-21T20:56:42.017Z,100876.13
2023-05-21T20:59:11.952Z,100878.79
2023-05-21T21:01:40.932Z,100878.94
2023-05-21T21:04:09.546Z,100879.06
2023-05-21T21:06:38.617Z,100880.75
2023-05-21T21:09:06.475Z,100877.83
2023-05-21T21:11:34.325Z,100878.11
2023-05-21T21:14:02.728Z,100872.69
2023-05-21T21:16:30.888Z,100871.27
2023-05-21T21:18:58.577Z,100869.88
2023-05-21T21:21:27.153Z,100864.42
2023-05-21T21:23:54.819Z,100866.99
2023-05-21T21:26:23.260Z,100865.27
2023-05-21T21:28:50.997Z,100867.14
2023-05-21T21:31:18.787Z,100870.23
2023-05-21T21:33:46.469Z,100869.48
2023-05-21T21:36:14.611Z,100870.52
2023-05-21T21:38:42.459Z,100863.92
2023-05-21T21:41:10.483Z,100865.41
2023-05-21T21:43:38.356Z,100861.64
2023-05-21T21:46:06.062Z,100866.77
2023-05-21T21:48:34.786Z,100863.20
2023-05-21T21:51:02.548Z,100867.02
2023-05-21T21:53:30.784Z,100868.10
2023-05-21T21:56:01.008Z,100867.48
2023-05-21T21:58:28.745Z,100868.89
2023-05-21T22:00:57.273Z,100865.28
2023-05-21T22:03:25.029Z,100866.34
2023-05-21T22:05:55.131Z,100867.80
2023-05-21T22:08:22.858Z,100872.05
2023-05-21T22:10:50.952Z,100871.00
2023-05-21T22:13:18.957Z,100866.55
2023-05-21T22:15:47.353Z,100865.53
2023-05-21T22:18:22.455Z,100867.05
2023-05-21T22:20:56.062Z,100866.05
2023-05-21T22:23:23.715Z,100869.40
2023-05-21T22:25:52.316Z,100870.73
2023-05-21T22:28:22.358Z,100870.56
2023-05-21T22:30:50.123Z,100870.73
2023-05-21T22:33:18.003Z,100871.65
2023-05-21T22:35:46.253Z,100873.16
2023-05-21T22:38:14.167Z,100873.30
2023-05-21T22:40:41.815Z,100874.39
2023-05-21T22:43:09.686Z,100871.84
2023-05-21T22:45:38.479Z,100878.07
2023-05-21T22:48:07.331Z,100879.77
2023-05-21T22:50:36.271Z,100881.27
2023-05-21T22:53:04.290Z,100878.49
2023-05-21T22:55:32.054Z,100874.32
2023-05-21T22:57:59.733Z,100877.25
2023-05-21T23:00:27.510Z,100872.20
2023-05-21T23:02:55.705Z,100872.10
2023-05-21T23:05:23.492Z,100869.52
2023-05-21T23:07:51.456Z,100869.99
2023-05-21T23:10:19.225Z,100868.22
2023-05-21T23:12:46.983Z,100869.31
2023-05-21T23:15:14.709Z,100871.09
2023-05-21T23:17:42.490Z,100866.95
2023-05-21T23:20:10.593Z,100868.33
2023-05-21T23:22:39.870Z,100867.88
2023-05-21T23:25:08.379Z,100869.48
2023-05-21T23:27:36.060Z,100868.55
2023-05-21T23:30:03.843Z,100865.61
2023-05-21T23:32:31.626Z,100865.23
2023-05-21T23:34:59.300Z,100866.10
2023-05-21T23:37:27.034Z,100869.17
2023-05-21T23:39:54.711Z,100871.99
2023-05-21T23:42:22.535Z,100874.95
2023-05-21T23:44:50.261Z,100873.73
2023-05-21T23:47:18.121Z,100871.34
2023-05-21T23:49:45.962Z,100872.31
2023-05-21T23:52:17.265Z,100871.52
2023-05-21T23:54:45.047Z,100869.96
2023-05-21T23:57:13.343Z,100874.32
2023-05-21T23:59:41.146Z,100871.80
